createdAt,value
2018-07-23T00:07:01.173Z,11.3
2018-07-23T00:12:01.241Z,10.9
2018-07-23T00:17:01.106Z,10.8
2018-07-23T00:22:01.173Z,11.2
2018-07-23T00:27:01.108Z,12.2
2018-07-23T00:32:01.176Z,12.5
2018-07-23T00:37:01.094Z,13.1
2018-07-23T00:42:01.227Z,13.9
2018-07-23T00:47:01.096Z,13.8
2018-07-23T00:52:01.230Z,13.4
2018-07-23T00:57:01.117Z,13.7
2018-07-23T01:02:01.165Z,14.4
2018-07-23T01:07:01.103Z,14.3
2018-07-23T01:12:01.164Z,14.5
2018-07-23T01:17:02.139Z,15.3
2018-07-23T01:22:01.247Z,15.9
2018-07-23T01:27:01.080Z,17.0
2018-07-23T01:32:01.112Z,17.7
2018-07-23T01:37:01.111Z,19.3
2018-07-23T01:42:01.184Z,18.8
2018-07-23T01:47:01.103Z,19.5
2018-07-23T01:52:01.238Z,18.6
2018-07-23T02:02:01.231Z,18.0
2018-07-23T02:07:01.100Z,19.2
2018-07-23T02:12:01.169Z,19.1
2018-07-23T02:17:01.103Z,19.8
2018-07-23T02:22:01.171Z,20.8
2018-07-23T02:27:01.101Z,22.5
2018-07-23T02:32:01.238Z,22.7
2018-07-23T02:37:06.114Z,23.4
2018-07-23T02:42:01.092Z,23.3
2018-07-23T02:47:01.102Z,22.9
2018-07-23T02:52:01.162Z,21.6
2018-07-23T02:57:01.100Z,21.2
2018-07-23T03:02:01.104Z,20.0
2018-07-23T03:07:01.110Z,19.5
2018-07-23T03:12:06.241Z,19.2
2018-07-23T03:17:06.079Z,19.8
2018-07-23T03:22:06.189Z,20.4
2018-07-23T03:27:01.164Z,22.0
2018-07-23T03:32:01.266Z,23.3
2018-07-23T03:37:01.132Z,24.9
2018-07-23T03:42:01.208Z,24.0
2018-07-23T03:47:01.105Z,24.2
2018-07-23T03:52:01.132Z,24.0
2018-07-23T03:57:01.141Z,23.6
2018-07-23T04:02:01.206Z,23.2
2018-07-23T04:07:01.099Z,23.7
2018-07-23T04:12:01.164Z,24.1
2018-07-23T04:17:01.102Z,24.4
2018-07-23T04:22:01.226Z,25.6
2018-07-23T04:27:01.101Z,26.4
2018-07-23T04:32:01.166Z,28.4
2018-07-23T04:42:01.170Z,29.8
2018-07-23T04:47:01.110Z,30.4
2018-07-23T04:52:06.178Z,31.2
2018-07-23T04:57:01.227Z,31.6
2018-07-23T05:02:06.115Z,32.0
2018-07-23T05:07:01.134Z,30.8
2018-07-23T05:18:01.223Z,29.7
2018-07-23T05:23:01.166Z,29.4
2018-07-23T05:28:01.106Z,29.0
2018-07-23T05:33:01.243Z,29.6
2018-07-23T05:38:01.129Z,29.3
2018-07-23T05:43:06.245Z,29.1
2018-07-23T05:48:01.075Z,28.0
2018-07-23T05:53:01.178Z,28.4
2018-07-23T05:58:01.099Z,27.8
2018-07-23T06:03:01.162Z,27.2
2018-07-23T06:08:01.098Z,27.4
2018-07-23T06:13:01.254Z,26.5
2018-07-23T06:18:01.109Z,25.0
2018-07-23T06:23:01.167Z,23.2
2018-07-23T06:28:01.105Z,21.7
2018-07-23T06:33:01.175Z,20.7
2018-07-23T06:38:01.078Z,19.8
2018-07-23T06:43:01.244Z,19.3
2018-07-23T06:48:01.102Z,18.3
2018-07-23T06:53:01.233Z,17.0
2018-07-23T06:58:01.099Z,15.6
2018-07-23T07:03:01.168Z,14.7
2018-07-23T07:08:01.079Z,14.3
2018-07-23T07:13:01.173Z,14.8
2018-07-23T07:18:01.111Z,15.2
2018-07-23T07:23:01.243Z,15.3
2018-07-23T07:28:01.112Z,15.4
2018-07-23T07:33:01.182Z,15.0
2018-07-23T07:38:01.174Z,14.5
2018-07-23T07:43:01.184Z,14.2
2018-07-23T07:49:01.237Z,13.2
2018-07-23T07:59:01.177Z,13.3
2018-07-23T08:04:01.107Z,13.5
2018-07-23T08:09:01.114Z,13.8
2018-07-23T08:14:02.147Z,14.2
2018-07-23T08:19:01.109Z,14.5
2018-07-23T08:24:01.138Z,14.0
2018-07-23T08:29:01.229Z,13.6
2018-07-23T08:34:01.134Z,13.2
2018-07-23T08:39:01.190Z,12.9
2018-07-23T08:44:01.103Z,12.6
2018-07-23T08:49:01.231Z,12.7
2018-07-23T08:54:01.079Z,13.1
2018-07-23T08:59:01.235Z,13.3
2018-07-23T09:09:01.166Z,12.9
2018-07-23T09:14:01.093Z,14.0
2018-07-23T09:19:01.162Z,13.8
2018-07-23T09:24:01.068Z,13.2
2018-07-23T09:34:01.194Z,13.3
2018-07-23T09:39:01.177Z,12.8
2018-07-23T09:44:01.132Z,13.3
2018-07-23T09:49:01.274Z,13.4
2018-07-23T09:55:01.068Z,13.5
2018-07-23T10:00:01.110Z,14.2
2018-07-23T10:05:01.099Z,13.5
2018-07-23T10:10:01.171Z,12.8
2018-07-23T10:15:01.108Z,13.4
2018-07-23T10:20:01.106Z,13.1
2018-07-23T10:25:01.077Z,12.7
2018-07-23T10:30:01.171Z,13.0
2018-07-23T10:35:01.113Z,13.6
2018-07-23T10:40:01.255Z,13.9
2018-07-23T10:45:01.107Z,13.7
2018-07-23T10:50:01.102Z,13.6
2018-07-23T11:00:01.163Z,12.8
2018-07-23T11:05:01.105Z,12.6
2018-07-23T11:10:01.175Z,12.5
2018-07-23T11:15:01.093Z,12.6
2018-07-23T11:21:01.167Z,12.4
2018-07-23T11:26:01.068Z,12.2
2018-07-23T11:31:01.102Z,11.6
2018-07-23T11:36:01.103Z,11.5
2018-07-23T11:41:01.202Z,11.0
2018-07-23T11:46:01.141Z,11.2
2018-07-23T11:51:01.346Z,11.6
2018-07-23T12:06:01.177Z,12.0
2018-07-23T12:11:01.175Z,11.7
2018-07-23T12:17:01.099Z,11.1
2018-07-23T12:22:01.185Z,10.8
2018-07-23T12:27:01.100Z,10.6
2018-07-23T12:32:01.169Z,10.8
2018-07-23T12:37:01.105Z,10.7
2018-07-23T12:42:01.235Z,10.5
2018-07-23T12:47:01.080Z,10.4
2018-07-23T12:52:01.173Z,10.0
2018-07-23T12:57:01.096Z,9.5
2018-07-23T13:02:01.189Z,9.2
2018-07-23T13:07:01.066Z,9.3
2018-07-23T13:12:01.170Z,9.4
2018-07-23T13:17:01.103Z,10.0
2018-07-23T13:22:01.237Z,9.6
2018-07-23T13:27:01.108Z,9.5
2018-07-23T13:32:01.175Z,9.1
2018-07-23T13:37:01.069Z,8.9
2018-07-23T13:42:01.186Z,8.5
2018-07-23T13:47:01.148Z,8.9
2018-07-23T13:52:01.259Z,9.0
2018-07-23T13:57:01.070Z,9.3
2018-07-23T14:02:01.233Z,9.1
2018-07-23T14:07:01.067Z,8.9
2018-07-23T14:12:01.186Z,8.6
2018-07-23T14:22:01.178Z,8.0
2018-07-23T14:28:01.097Z,8.4
2018-07-23T14:38:01.099Z,9.2
2018-07-23T14:43:01.235Z,9.4
2018-07-23T14:48:01.097Z,10.2
2018-07-23T14:53:01.167Z,10.6
2018-07-23T14:58:01.104Z,12.0
2018-07-23T15:03:01.177Z,11.9
2018-07-23T15:08:01.111Z,11.8
2018-07-23T15:18:01.285Z,11.4
2018-07-23T15:23:01.222Z,11.1
2018-07-23T15:28:01.142Z,10.9
2018-07-23T15:33:01.422Z,11.0
2018-07-23T15:38:01.132Z,10.8
2018-07-23T15:43:01.264Z,10.7
2018-07-23T15:48:01.108Z,10.6
2018-07-23T15:53:01.295Z,10.7
2018-07-23T15:58:01.101Z,10.6
2018-07-23T16:08:01.240Z,10.8
2018-07-23T16:18:01.155Z,11.0
2018-07-23T16:23:01.247Z,11.1
2018-07-23T16:33:01.230Z,11.7
2018-07-23T16:38:01.104Z,11.3
2018-07-23T16:43:01.101Z,11.2
2018-07-23T16:48:01.075Z,11.6
2018-07-23T16:53:01.237Z,11.9
2018-07-23T16:59:01.098Z,11.8
2018-07-23T17:04:01.071Z,12.0
2018-07-23T17:14:01.167Z,11.8
2018-07-23T17:19:01.260Z,12.2
2018-07-23T17:24:01.103Z,11.4
2018-07-23T17:29:01.110Z,11.8
2018-07-23T17:34:01.113Z,11.7
2018-07-23T17:39:01.098Z,11.1
2018-07-23T17:44:01.097Z,10.7
2018-07-23T17:49:01.166Z,11.0
2018-07-23T17:54:01.079Z,10.6
2018-07-23T17:59:01.108Z,10.5
2018-07-23T18:04:01.103Z,11.4
2018-07-23T18:09:01.181Z,11.6
2018-07-23T18:14:01.111Z,11.8
2018-07-23T18:19:01.182Z,12.0
2018-07-23T18:25:01.166Z,12.2
2018-07-23T18:30:01.170Z,11.9
2018-07-23T18:40:01.238Z,12.4
2018-07-23T18:45:01.113Z,12.8
2018-07-23T18:50:01.183Z,13.2
2018-07-23T18:55:01.173Z,13.6
2018-07-23T19:00:01.239Z,13.4
2018-07-23T19:06:01.071Z,13.0
2018-07-23T19:11:01.096Z,12.9
2018-07-23T19:16:01.105Z,12.5
2018-07-23T19:21:01.232Z,12.6
2018-07-23T19:31:02.134Z,12.0
2018-07-23T19:36:01.109Z,11.9
2018-07-23T19:41:01.210Z,11.7
2018-07-23T19:46:01.074Z,11.2
2018-07-23T19:51:01.243Z,11.4
2018-07-23T19:56:01.129Z,11.2
2018-07-23T20:06:01.118Z,11.4
2018-07-23T20:11:01.175Z,12.0
2018-07-23T20:21:01.175Z,12.3
2018-07-23T20:26:01.101Z,12.0
2018-07-23T20:31:01.107Z,12.3
2018-07-23T20:36:01.078Z,12.2
2018-07-23T20:41:01.170Z,12.7
2018-07-23T20:46:01.085Z,13.5
2018-07-23T20:51:01.163Z,14.0
2018-07-23T20:56:01.102Z,13.9
2018-07-23T21:01:01.170Z,14.2
2018-07-23T21:06:01.105Z,14.1
2018-07-23T21:11:01.236Z,13.6
2018-07-23T21:16:01.109Z,13.9
2018-07-23T21:21:01.174Z,14.5
2018-07-23T21:26:01.107Z,14.2
2018-07-23T21:31:01.172Z,14.7
2018-07-23T21:36:01.072Z,15.1
2018-07-23T21:41:01.206Z,14.7
2018-07-23T21:46:01.143Z,14.4
2018-07-23T21:51:01.217Z,14.7
2018-07-23T21:56:01.110Z,15.1
2018-07-23T22:01:01.286Z,15.8
2018-07-23T22:06:06.113Z,16.9
2018-07-23T22:11:01.269Z,17.3
2018-07-23T22:16:01.111Z,17.8
2018-07-23T22:21:01.237Z,17.3
2018-07-23T22:26:01.080Z,17.2
2018-07-23T22:31:01.216Z,16.3
2018-07-23T22:41:01.162Z,16.2
2018-07-23T22:46:01.096Z,16.4
2018-07-23T22:51:01.263Z,16.6
2018-07-23T22:56:01.102Z,18.0
2018-07-23T23:01:01.236Z,18.8
2018-07-23T23:06:06.109Z,19.0
2018-07-23T23:11:01.169Z,19.2
2018-07-23T23:21:01.170Z,18.5
2018-07-23T23:26:01.065Z,18.4
2018-07-23T23:31:01.224Z,18.3
2018-07-23T23:36:01.064Z,18.7
2018-07-23T23:41:01.161Z,19.0
2018-07-23T23:46:01.101Z,19.2
2018-07-23T23:51:01.158Z,18.7
2018-07-23T23:56:01.065Z,19.5
